Terminal Aerodrome Forecast
Issued by NWS

Home | Current Version | Previous Version | Text Only | Print | Product List | Glossary Off
Versions: 1 2 3 4 5 6 7 8 9 10 11 12 13 14 15 16 17 18

000
FTUS43 KFGF 260637 AAA
TAFBJI
TAF AMD
KBJI 260637Z 2607/2706 17006KT P6SM VCTS OVC008CB
     FM260800 19008KT P6SM OVC008
     FM261500 21009KT P6SM BKN010
     FM261700 23011KT P6SM BKN040
     FM262200 24010KT P6SM SCT200=

USA.gov is the U.S. government's official web portal to all federal, state and local government web resources and services.